sensor_id;sensor_type;location;lat;lon;timestamp;P1;durP1;ratioP1;P2;durP2;ratioP2
28252;SDS011;15515;45.588;5.276;2022-10-31T00:01:10;20.70;;;9.23;;
28252;SDS011;15515;45.588;5.276;2022-10-31T00:03:42;21.25;;;9.30;;
28252;SDS011;15515;45.588;5.276;2022-10-31T00:06:09;22.38;;;9.10;;
28252;SDS011;15515;45.588;5.276;2022-10-31T00:08:36;19.55;;;9.60;;
28252;SDS011;15515;45.588;5.276;2022-10-31T00:11:03;18.10;;;9.02;;
28252;SDS011;15515;45.588;5.276;2022-10-31T00:13:34;22.23;;;9.38;;
28252;SDS011;15515;45.588;5.276;2022-10-31T00:16:01;17.45;;;8.38;;
28252;SDS011;15515;45.588;5.276;2022-10-31T00:18:28;21.70;;;9.25;;
28252;SDS011;15515;45.588;5.276;2022-10-31T00:21:02;24.17;;;10.18;;
28252;SDS011;15515;45.588;5.276;2022-10-31T00:23:29;22.95;;;9.55;;
28252;SDS011;15515;45.588;5.276;2022-10-31T00:26:01;20.48;;;8.68;;
28252;SDS011;15515;45.588;5.276;2022-10-31T00:28:29;24.63;;;8.93;;
28252;SDS011;15515;45.588;5.276;2022-10-31T00:31:03;20.98;;;9.18;;
28252;SDS011;15515;45.588;5.276;2022-10-31T00:33:33;21.92;;;9.13;;
28252;SDS011;15515;45.588;5.276;2022-10-31T00:36:01;19.45;;;9.10;;
28252;SDS011;15515;45.588;5.276;2022-10-31T00:38:28;19.92;;;8.82;;
28252;SDS011;15515;45.588;5.276;2022-10-31T00:40:56;18.30;;;9.45;;
28252;SDS011;15515;45.588;5.276;2022-10-31T00:43:23;17.05;;;8.38;;
28252;SDS011;15515;45.588;5.276;2022-10-31T00:45:50;21.65;;;8.55;;
28252;SDS011;15515;45.588;5.276;2022-10-31T00:48:17;15.73;;;9.07;;
28252;SDS011;15515;45.588;5.276;2022-10-31T00:50:44;16.88;;;8.68;;
28252;SDS011;15515;45.588;5.276;2022-10-31T00:53:11;22.60;;;9.48;;
28252;SDS011;15515;45.588;5.276;2022-10-31T00:55:38;21.50;;;9.23;;
28252;SDS011;15515;45.588;5.276;2022-10-31T00:58:05;19.00;;;8.52;;
28252;SDS011;15515;45.588;5.276;2022-10-31T01:00:32;28.35;;;9.10;;
28252;SDS011;15515;45.588;5.276;2022-10-31T01:03:00;22.83;;;9.50;;
28252;SDS011;15515;45.588;5.276;2022-10-31T01:05:27;28.95;;;9.82;;
28252;SDS011;15515;45.588;5.276;2022-10-31T01:07:54;21.10;;;9.35;;
28252;SDS011;15515;45.588;5.276;2022-10-31T01:10:21;26.48;;;9.88;;
28252;SDS011;15515;45.588;5.276;2022-10-31T01:12:50;21.52;;;9.63;;
28252;SDS011;15515;45.588;5.276;2022-10-31T01:15:20;35.17;;;10.23;;
28252;SDS011;15515;45.588;5.276;2022-10-31T01:17:48;27.63;;;9.95;;
28252;SDS011;15515;45.588;5.276;2022-10-31T01:20:16;20.40;;;8.73;;
28252;SDS011;15515;45.588;5.276;2022-10-31T01:22:43;23.30;;;11.00;;
28252;SDS011;15515;45.588;5.276;2022-10-31T01:25:11;26.67;;;10.15;;
28252;SDS011;15515;45.588;5.276;2022-10-31T01:27:38;27.50;;;10.02;;
28252;SDS011;15515;45.588;5.276;2022-10-31T01:30:06;17.27;;;9.45;;
28252;SDS011;15515;45.588;5.276;2022-10-31T01:32:33;23.27;;;10.25;;
28252;SDS011;15515;45.588;5.276;2022-10-31T01:35:01;28.90;;;10.05;;
28252;SDS011;15515;45.588;5.276;2022-10-31T01:37:28;22.10;;;9.18;;
28252;SDS011;15515;45.588;5.276;2022-10-31T01:39:56;22.58;;;9.02;;
28252;SDS011;15515;45.588;5.276;2022-10-31T01:42:23;29.27;;;10.05;;
28252;SDS011;15515;45.588;5.276;2022-10-31T01:44:52;28.40;;;9.20;;
28252;SDS011;15515;45.588;5.276;2022-10-31T01:47:31;31.60;;;9.45;;
28252;SDS011;15515;45.588;5.276;2022-10-31T01:52:54;30.83;;;9.70;;
28252;SDS011;15515;45.588;5.276;2022-10-31T01:55:26;20.27;;;9.35;;
28252;SDS011;15515;45.588;5.276;2022-10-31T01:58:07;25.83;;;9.95;;
28252;SDS011;15515;45.588;5.276;2022-10-31T02:00:46;24.38;;;10.50;;
28252;SDS011;15515;45.588;5.276;2022-10-31T02:03:17;26.40;;;10.13;;
28252;SDS011;15515;45.588;5.276;2022-10-31T02:05:46;28.23;;;9.48;;
28252;SDS011;15515;45.588;5.276;2022-10-31T02:08:21;22.77;;;9.90;;
28252;SDS011;15515;45.588;5.276;2022-10-31T02:10:52;28.02;;;10.82;;
28252;SDS011;15515;45.588;5.276;2022-10-31T02:13:22;20.80;;;9.18;;
28252;SDS011;15515;45.588;5.276;2022-10-31T02:15:54;23.67;;;9.27;;
28252;SDS011;15515;45.588;5.276;2022-10-31T02:18:24;23.63;;;9.55;;
28252;SDS011;15515;45.588;5.276;2022-10-31T02:21:03;20.83;;;9.27;;
28252;SDS011;15515;45.588;5.276;2022-10-31T02:41:09;23.88;;;10.25;;
28252;SDS011;15515;45.588;5.276;2022-10-31T02:44:20;22.65;;;9.27;;
28252;SDS011;15515;45.588;5.276;2022-10-31T02:46:57;23.77;;;9.10;;
28252;SDS011;15515;45.588;5.276;2022-10-31T02:51:54;17.30;;;9.00;;
28252;SDS011;15515;45.588;5.276;2022-10-31T02:54:25;21.27;;;9.10;;
28252;SDS011;15515;45.588;5.276;2022-10-31T02:59:29;21.77;;;9.90;;
28252;SDS011;15515;45.588;5.276;2022-10-31T03:04:59;21.92;;;10.13;;
28252;SDS011;15515;45.588;5.276;2022-10-31T03:13:25;18.98;;;10.70;;
28252;SDS011;15515;45.588;5.276;2022-10-31T03:22:12;23.50;;;9.60;;
28252;SDS011;15515;45.588;5.276;2022-10-31T03:24:45;28.55;;;9.77;;
28252;SDS011;15515;45.588;5.276;2022-10-31T03:27:19;21.38;;;8.77;;
28252;SDS011;15515;45.588;5.276;2022-10-31T03:29:52;27.30;;;9.60;;
28252;SDS011;15515;45.588;5.276;2022-10-31T03:32:23;24.95;;;9.70;;
28252;SDS011;15515;45.588;5.276;2022-10-31T03:34:59;25.15;;;10.07;;
28252;SDS011;15515;45.588;5.276;2022-10-31T03:37:29;18.42;;;9.38;;
28252;SDS011;15515;45.588;5.276;2022-10-31T03:39:59;22.95;;;9.70;;
28252;SDS011;15515;45.588;5.276;2022-10-31T03:42:31;20.13;;;9.27;;
28252;SDS011;15515;45.588;5.276;2022-10-31T03:45:03;24.60;;;9.18;;
28252;SDS011;15515;45.588;5.276;2022-10-31T03:47:39;21.58;;;9.38;;
28252;SDS011;15515;45.588;5.276;2022-10-31T03:50:10;23.08;;;9.80;;
28252;SDS011;15515;45.588;5.276;2022-10-31T03:58:06;17.75;;;9.35;;
28252;SDS011;15515;45.588;5.276;2022-10-31T04:00:41;26.05;;;10.07;;
28252;SDS011;15515;45.588;5.276;2022-10-31T04:03:29;22.38;;;9.52;;
28252;SDS011;15515;45.588;5.276;2022-10-31T04:06:03;20.20;;;9.02;;
28252;SDS011;15515;45.588;5.276;2022-10-31T04:08:39;19.38;;;9.13;;
28252;SDS011;15515;45.588;5.276;2022-10-31T04:11:13;25.15;;;9.32;;
28252;SDS011;15515;45.588;5.276;2022-10-31T04:13:47;20.45;;;10.25;;
28252;SDS011;15515;45.588;5.276;2022-10-31T04:16:20;20.45;;;9.25;;
28252;SDS011;15515;45.588;5.276;2022-10-31T04:18:49;22.65;;;9.50;;
28252;SDS011;15515;45.588;5.276;2022-10-31T04:21:16;29.48;;;10.25;;
28252;SDS011;15515;45.588;5.276;2022-10-31T04:23:44;26.73;;;10.05;;
28252;SDS011;15515;45.588;5.276;2022-10-31T04:26:20;21.35;;;10.05;;
28252;SDS011;15515;45.588;5.276;2022-10-31T04:28:47;28.13;;;9.93;;
28252;SDS011;15515;45.588;5.276;2022-10-31T04:31:14;21.08;;;9.82;;
28252;SDS011;15515;45.588;5.276;2022-10-31T04:33:43;20.75;;;9.80;;
28252;SDS011;15515;45.588;5.276;2022-10-31T04:36:11;23.65;;;9.60;;
28252;SDS011;15515;45.588;5.276;2022-10-31T04:38:38;17.40;;;9.77;;
28252;SDS011;15515;45.588;5.276;2022-10-31T04:41:14;23.63;;;10.18;;
28252;SDS011;15515;45.588;5.276;2022-10-31T04:43:50;23.20;;;10.10;;
28252;SDS011;15515;45.588;5.276;2022-10-31T04:46:18;18.83;;;8.82;;
28252;SDS011;15515;45.588;5.276;2022-10-31T04:48:46;25.33;;;9.48;;
28252;SDS011;15515;45.588;5.276;2022-10-31T04:51:13;26.52;;;10.15;;
28252;SDS011;15515;45.588;5.276;2022-10-31T04:53:40;20.45;;;9.90;;
28252;SDS011;15515;45.588;5.276;2022-10-31T04:56:33;23.25;;;9.48;;
28252;SDS011;15515;45.588;5.276;2022-10-31T04:59:07;26.27;;;10.32;;
28252;SDS011;15515;45.588;5.276;2022-10-31T05:01:46;22.50;;;10.18;;
28252;SDS011;15515;45.588;5.276;2022-10-31T05:04:13;21.85;;;9.50;;
28252;SDS011;15515;45.588;5.276;2022-10-31T05:06:40;24.88;;;9.45;;
28252;SDS011;15515;45.588;5.276;2022-10-31T05:09:07;23.73;;;10.88;;
28252;SDS011;15515;45.588;5.276;2022-10-31T05:11:34;32.33;;;9.43;;
28252;SDS011;15515;45.588;5.276;2022-10-31T05:14:17;22.30;;;9.98;;
28252;SDS011;15515;45.588;5.276;2022-10-31T05:17:13;24.75;;;9.35;;
28252;SDS011;15515;45.588;5.276;2022-10-31T05:20:13;20.30;;;9.07;;
28252;SDS011;15515;45.588;5.276;2022-10-31T05:23:01;31.02;;;10.27;;
28252;SDS011;15515;45.588;5.276;2022-10-31T05:25:29;28.10;;;9.77;;
28252;SDS011;15515;45.588;5.276;2022-10-31T05:27:56;25.52;;;10.20;;
28252;SDS011;15515;45.588;5.276;2022-10-31T05:30:25;21.85;;;10.30;;
28252;SDS011;15515;45.588;5.276;2022-10-31T05:32:54;22.73;;;10.10;;
28252;SDS011;15515;45.588;5.276;2022-10-31T05:35:59;21.10;;;9.85;;
28252;SDS011;15515;45.588;5.276;2022-10-31T05:38:53;22.88;;;9.88;;
28252;SDS011;15515;45.588;5.276;2022-10-31T05:41:23;23.13;;;9.93;;
28252;SDS011;15515;45.588;5.276;2022-10-31T05:43:53;25.48;;;10.55;;
28252;SDS011;15515;45.588;5.276;2022-10-31T05:46:26;26.13;;;9.85;;
28252;SDS011;15515;45.588;5.276;2022-10-31T05:49:12;28.08;;;10.95;;
28252;SDS011;15515;45.588;5.276;2022-10-31T05:51:57;20.00;;;10.20;;
28252;SDS011;15515;45.588;5.276;2022-10-31T05:54:33;22.95;;;10.35;;
28252;SDS011;15515;45.588;5.276;2022-10-31T05:57:00;22.25;;;10.55;;
28252;SDS011;15515;45.588;5.276;2022-10-31T05:59:27;26.42;;;10.50;;
28252;SDS011;15515;45.588;5.276;2022-10-31T06:01:54;21.50;;;10.55;;
28252;SDS011;15515;45.588;5.276;2022-10-31T06:04:44;21.88;;;10.38;;
28252;SDS011;15515;45.588;5.276;2022-10-31T06:07:11;19.63;;;10.10;;
28252;SDS011;15515;45.588;5.276;2022-10-31T06:09:38;25.30;;;10.25;;
28252;SDS011;15515;45.588;5.276;2022-10-31T06:12:06;23.83;;;10.77;;
28252;SDS011;15515;45.588;5.276;2022-10-31T06:14:53;19.58;;;10.15;;
28252;SDS011;15515;45.588;5.276;2022-10-31T06:17:20;26.73;;;10.30;;
28252;SDS011;15515;45.588;5.276;2022-10-31T06:19:47;30.48;;;10.90;;
28252;SDS011;15515;45.588;5.276;2022-10-31T06:22:22;21.98;;;10.18;;
28252;SDS011;15515;45.588;5.276;2022-10-31T06:24:50;23.35;;;10.80;;
28252;SDS011;15515;45.588;5.276;2022-10-31T06:27:33;20.67;;;10.93;;
28252;SDS011;15515;45.588;5.276;2022-10-31T06:30:09;27.58;;;10.77;;
28252;SDS011;15515;45.588;5.276;2022-10-31T06:32:37;23.05;;;10.55;;
28252;SDS011;15515;45.588;5.276;2022-10-31T06:35:04;25.05;;;10.35;;
28252;SDS011;15515;45.588;5.276;2022-10-31T06:37:33;27.98;;;10.48;;
28252;SDS011;15515;45.588;5.276;2022-10-31T06:40:11;21.52;;;9.75;;
28252;SDS011;15515;45.588;5.276;2022-10-31T06:42:59;23.00;;;9.68;;
28252;SDS011;15515;45.588;5.276;2022-10-31T06:45:29;21.17;;;10.40;;
28252;SDS011;15515;45.588;5.276;2022-10-31T06:48:19;23.05;;;10.15;;
28252;SDS011;15515;45.588;5.276;2022-10-31T06:51:21;21.42;;;10.30;;
28252;SDS011;15515;45.588;5.276;2022-10-31T06:53:50;24.20;;;10.90;;
28252;SDS011;15515;45.588;5.276;2022-10-31T06:56:17;24.95;;;10.85;;
28252;SDS011;15515;45.588;5.276;2022-10-31T06:58:49;25.98;;;10.00;;
28252;SDS011;15515;45.588;5.276;2022-10-31T07:01:26;26.75;;;10.68;;
28252;SDS011;15515;45.588;5.276;2022-10-31T07:03:53;21.92;;;10.30;;
28252;SDS011;15515;45.588;5.276;2022-10-31T07:06:20;17.45;;;10.35;;
28252;SDS011;15515;45.588;5.276;2022-10-31T07:08:47;27.83;;;10.30;;
28252;SDS011;15515;45.588;5.276;2022-10-31T07:11:15;23.92;;;10.85;;
28252;SDS011;15515;45.588;5.276;2022-10-31T07:13:42;24.10;;;11.13;;
28252;SDS011;15515;45.588;5.276;2022-10-31T07:16:09;17.65;;;10.15;;
28252;SDS011;15515;45.588;5.276;2022-10-31T07:18:41;27.77;;;10.88;;
28252;SDS011;15515;45.588;5.276;2022-10-31T07:21:10;21.25;;;10.05;;
28252;SDS011;15515;45.588;5.276;2022-10-31T07:23:38;23.33;;;11.20;;
28252;SDS011;15515;45.588;5.276;2022-10-31T07:26:31;23.67;;;11.33;;
28252;SDS011;15515;45.588;5.276;2022-10-31T07:28:58;25.30;;;11.18;;
28252;SDS011;15515;45.588;5.276;2022-10-31T07:31:27;20.58;;;10.35;;
28252;SDS011;15515;45.588;5.276;2022-10-31T07:33:58;24.00;;;10.45;;
28252;SDS011;15515;45.588;5.276;2022-10-31T07:36:25;25.45;;;10.68;;
28252;SDS011;15515;45.588;5.276;2022-10-31T07:38:56;29.17;;;11.32;;
28252;SDS011;15515;45.588;5.276;2022-10-31T07:41:25;27.70;;;11.57;;
28252;SDS011;15515;45.588;5.276;2022-10-31T07:43:52;21.90;;;11.23;;
28252;SDS011;15515;45.588;5.276;2022-10-31T07:46:28;24.85;;;11.20;;
28252;SDS011;15515;45.588;5.276;2022-10-31T07:49:14;27.70;;;10.70;;
28252;SDS011;15515;45.588;5.276;2022-10-31T07:52:00;21.58;;;12.15;;
28252;SDS011;15515;45.588;5.276;2022-10-31T07:54:46;23.80;;;9.82;;
28252;SDS011;15515;45.588;5.276;2022-10-31T07:57:21;20.05;;;10.15;;
28252;SDS011;15515;45.588;5.276;2022-10-31T07:59:50;25.13;;;10.52;;
28252;SDS011;15515;45.588;5.276;2022-10-31T08:02:17;23.98;;;11.02;;
28252;SDS011;15515;45.588;5.276;2022-10-31T08:04:47;22.48;;;9.63;;
28252;SDS011;15515;45.588;5.276;2022-10-31T08:07:35;22.02;;;9.98;;
28252;SDS011;15515;45.588;5.276;2022-10-31T08:10:06;23.43;;;9.77;;
28252;SDS011;15515;45.588;5.276;2022-10-31T08:12:34;22.35;;;9.65;;
28252;SDS011;15515;45.588;5.276;2022-10-31T08:15:03;19.00;;;8.70;;
28252;SDS011;15515;45.588;5.276;2022-10-31T08:17:30;27.30;;;10.10;;
28252;SDS011;15515;45.588;5.276;2022-10-31T08:20:01;24.92;;;10.27;;
28252;SDS011;15515;45.588;5.276;2022-10-31T08:22:33;21.38;;;9.48;;
28252;SDS011;15515;45.588;5.276;2022-10-31T08:25:01;18.00;;;9.82;;
28252;SDS011;15515;45.588;5.276;2022-10-31T08:27:28;23.02;;;10.30;;
28252;SDS011;15515;45.588;5.276;2022-10-31T08:29:58;21.65;;;9.60;;
28252;SDS011;15515;45.588;5.276;2022-10-31T08:32:25;21.60;;;9.65;;
28252;SDS011;15515;45.588;5.276;2022-10-31T08:35:15;18.42;;;9.77;;
28252;SDS011;15515;45.588;5.276;2022-10-31T08:38:13;24.60;;;9.95;;
28252;SDS011;15515;45.588;5.276;2022-10-31T08:40:41;19.10;;;9.05;;
28252;SDS011;15515;45.588;5.276;2022-10-31T08:43:11;23.30;;;9.70;;
28252;SDS011;15515;45.588;5.276;2022-10-31T08:45:39;27.23;;;8.90;;
28252;SDS011;15515;45.588;5.276;2022-10-31T08:48:15;19.70;;;8.95;;
28252;SDS011;15515;45.588;5.276;2022-10-31T08:50:43;25.10;;;9.52;;
28252;SDS011;15515;45.588;5.276;2022-10-31T08:55:42;19.85;;;8.73;;
28252;SDS011;15515;45.588;5.276;2022-10-31T08:58:28;23.10;;;9.57;;
28252;SDS011;15515;45.588;5.276;2022-10-31T09:01:00;26.13;;;9.02;;
28252;SDS011;15515;45.588;5.276;2022-10-31T09:03:28;21.95;;;8.93;;
28252;SDS011;15515;45.588;5.276;2022-10-31T09:05:59;21.05;;;7.70;;
28252;SDS011;15515;45.588;5.276;2022-10-31T09:08:29;22.70;;;8.50;;
28252;SDS011;15515;45.588;5.276;2022-10-31T09:10:57;27.33;;;9.05;;
28252;SDS011;15515;45.588;5.276;2022-10-31T09:13:47;20.25;;;8.50;;
28252;SDS011;15515;45.588;5.276;2022-10-31T09:16:49;20.92;;;9.02;;
28252;SDS011;15515;45.588;5.276;2022-10-31T09:19:21;20.00;;;8.73;;
28252;SDS011;15515;45.588;5.276;2022-10-31T09:21:52;17.65;;;7.82;;
28252;SDS011;15515;45.588;5.276;2022-10-31T09:24:21;18.83;;;7.82;;
28252;SDS011;15515;45.588;5.276;2022-10-31T09:26:48;21.13;;;7.55;;
28252;SDS011;15515;45.588;5.276;2022-10-31T09:29:25;16.17;;;7.63;;
28252;SDS011;15515;45.588;5.276;2022-10-31T09:31:56;21.13;;;7.47;;
28252;SDS011;15515;45.588;5.276;2022-10-31T09:34:26;23.58;;;8.15;;
28252;SDS011;15515;45.588;5.276;2022-10-31T09:37:14;28.52;;;8.23;;
28252;SDS011;15515;45.588;5.276;2022-10-31T09:39:41;30.25;;;7.88;;
28252;SDS011;15515;45.588;5.276;2022-10-31T09:51:16;22.75;;;7.28;;
28252;SDS011;15515;45.588;5.276;2022-10-31T09:57:19;25.95;;;7.40;;
28252;SDS011;15515;45.588;5.276;2022-10-31T09:59:50;23.05;;;6.97;;
28252;SDS011;15515;45.588;5.276;2022-10-31T10:02:26;20.83;;;6.75;;
28252;SDS011;15515;45.588;5.276;2022-10-31T10:05:09;23.55;;;7.00;;
28252;SDS011;15515;45.588;5.276;2022-10-31T10:07:47;17.73;;;5.50;;
28252;SDS011;15515;45.588;5.276;2022-10-31T10:16:45;20.38;;;6.82;;
28252;SDS011;15515;45.588;5.276;2022-10-31T10:22:59;17.85;;;6.60;;
28252;SDS011;15515;45.588;5.276;2022-10-31T10:25:19;21.75;;;6.93;;
28252;SDS011;15515;45.588;5.276;2022-10-31T10:33:20;13.25;;;5.90;;
28252;SDS011;15515;45.588;5.276;2022-10-31T10:35:57;23.50;;;5.57;;
28252;SDS011;15515;45.588;5.276;2022-10-31T10:38:34;14.20;;;5.03;;
28252;SDS011;15515;45.588;5.276;2022-10-31T10:41:22;17.42;;;5.25;;
28252;SDS011;15515;45.588;5.276;2022-10-31T10:43:55;18.63;;;5.45;;
28252;SDS011;15515;45.588;5.276;2022-10-31T10:46:34;16.75;;;5.25;;
28252;SDS011;15515;45.588;5.276;2022-10-31T11:00:29;18.40;;;5.78;;
28252;SDS011;15515;45.588;5.276;2022-10-31T11:03:07;17.23;;;5.25;;
28252;SDS011;15515;45.588;5.276;2022-10-31T11:05:36;13.77;;;5.32;;
28252;SDS011;15515;45.588;5.276;2022-10-31T11:08:27;12.63;;;4.60;;
28252;SDS011;15515;45.588;5.276;2022-10-31T11:11:03;21.05;;;5.88;;
28252;SDS011;15515;45.588;5.276;2022-10-31T11:13:34;14.80;;;5.68;;
28252;SDS011;15515;45.588;5.276;2022-10-31T11:18:37;15.82;;;5.30;;
28252;SDS011;15515;45.588;5.276;2022-10-31T11:21:21;16.80;;;5.25;;
28252;SDS011;15515;45.588;5.276;2022-10-31T11:24:02;16.65;;;5.40;;
28252;SDS011;15515;45.588;5.276;2022-10-31T11:26:29;12.90;;;4.25;;
28252;SDS011;15515;45.588;5.276;2022-10-31T11:28:57;16.33;;;5.90;;
28252;SDS011;15515;45.588;5.276;2022-10-31T11:31:25;17.60;;;5.22;;
28252;SDS011;15515;45.588;5.276;2022-10-31T11:34:03;16.15;;;4.90;;
28252;SDS011;15515;45.588;5.276;2022-10-31T11:36:43;13.00;;;4.88;;
28252;SDS011;15515;45.588;5.276;2022-10-31T11:39:15;15.85;;;4.72;;
28252;SDS011;15515;45.588;5.276;2022-10-31T11:41:48;17.05;;;5.32;;
28252;SDS011;15515;45.588;5.276;2022-10-31T11:46:51;16.75;;;5.32;;
28252;SDS011;15515;45.588;5.276;2022-10-31T11:49:37;25.30;;;5.60;;
28252;SDS011;15515;45.588;5.276;2022-10-31T11:52:07;21.58;;;4.15;;
28252;SDS011;15515;45.588;5.276;2022-10-31T11:54:55;16.40;;;4.82;;
28252;SDS011;15515;45.588;5.276;2022-10-31T11:59:53;11.88;;;4.70;;
28252;SDS011;15515;45.588;5.276;2022-10-31T12:02:22;14.88;;;5.35;;
28252;SDS011;15515;45.588;5.276;2022-10-31T12:04:54;20.20;;;4.70;;
28252;SDS011;15515;45.588;5.276;2022-10-31T12:07:23;13.55;;;4.50;;
28252;SDS011;15515;45.588;5.276;2022-10-31T12:09:51;17.02;;;4.72;;
28252;SDS011;15515;45.588;5.276;2022-10-31T12:21:23;18.48;;;4.88;;
28252;SDS011;15515;45.588;5.276;2022-10-31T12:26:39;18.80;;;4.82;;
28252;SDS011;15515;45.588;5.276;2022-10-31T12:29:23;15.05;;;5.40;;
28252;SDS011;15515;45.588;5.276;2022-10-31T12:42:58;19.88;;;5.35;;
28252;SDS011;15515;45.588;5.276;2022-10-31T12:45:57;15.80;;;4.90;;
28252;SDS011;15515;45.588;5.276;2022-10-31T12:48:37;16.55;;;4.35;;
28252;SDS011;15515;45.588;5.276;2022-10-31T12:57:06;10.73;;;4.30;;
28252;SDS011;15515;45.588;5.276;2022-10-31T13:02:44;12.20;;;4.47;;
28252;SDS011;15515;45.588;5.276;2022-10-31T13:05:40;18.90;;;5.00;;
28252;SDS011;15515;45.588;5.276;2022-10-31T13:08:14;20.30;;;5.15;;
28252;SDS011;15515;45.588;5.276;2022-10-31T13:10:45;15.80;;;4.90;;
28252;SDS011;15515;45.588;5.276;2022-10-31T13:13:27;10.85;;;3.55;;
28252;SDS011;15515;45.588;5.276;2022-10-31T13:16:57;15.77;;;5.25;;
28252;SDS011;15515;45.588;5.276;2022-10-31T13:24:22;16.17;;;4.20;;
28252;SDS011;15515;45.588;5.276;2022-10-31T13:26:54;12.75;;;3.88;;
28252;SDS011;15515;45.588;5.276;2022-10-31T13:29:26;14.38;;;4.38;;
28252;SDS011;15515;45.588;5.276;2022-10-31T13:32:00;18.13;;;5.15;;
28252;SDS011;15515;45.588;5.276;2022-10-31T13:40:18;18.75;;;4.90;;
28252;SDS011;15515;45.588;5.276;2022-10-31T13:42:55;11.65;;;4.25;;
28252;SDS011;15515;45.588;5.276;2022-10-31T13:45:53;12.68;;;4.28;;
28252;SDS011;15515;45.588;5.276;2022-10-31T13:50:58;9.38;;;4.05;;
28252;SDS011;15515;45.588;5.276;2022-10-31T13:53:35;13.95;;;4.45;;
28252;SDS011;15515;45.588;5.276;2022-10-31T13:58:35;9.07;;;3.85;;
28252;SDS011;15515;45.588;5.276;2022-10-31T14:01:12;19.60;;;4.60;;
28252;SDS011;15515;45.588;5.276;2022-10-31T14:03:43;8.02;;;2.58;;
28252;SDS011;15515;45.588;5.276;2022-10-31T14:09:17;12.32;;;3.65;;
28252;SDS011;15515;45.588;5.276;2022-10-31T14:11:47;18.48;;;4.13;;
28252;SDS011;15515;45.588;5.276;2022-10-31T14:14:15;10.82;;;3.35;;
28252;SDS011;15515;45.588;5.276;2022-10-31T14:16:45;22.90;;;4.30;;
28252;SDS011;15515;45.588;5.276;2022-10-31T14:19:14;22.63;;;4.57;;
28252;SDS011;15515;45.588;5.276;2022-10-31T14:21:47;12.30;;;3.60;;
28252;SDS011;15515;45.588;5.276;2022-10-31T14:26:55;16.50;;;3.88;;
28252;SDS011;15515;45.588;5.276;2022-10-31T14:29:31;15.00;;;4.10;;
28252;SDS011;15515;45.588;5.276;2022-10-31T14:34:42;10.00;;;3.80;;
28252;SDS011;15515;45.588;5.276;2022-10-31T14:40:33;9.95;;;3.63;;
28252;SDS011;15515;45.588;5.276;2022-10-31T14:44:03;11.52;;;3.95;;
28252;SDS011;15515;45.588;5.276;2022-10-31T14:49:12;13.43;;;4.25;;
28252;SDS011;15515;45.588;5.276;2022-10-31T14:51:45;16.92;;;4.20;;
28252;SDS011;15515;45.588;5.276;2022-10-31T14:54:15;10.98;;;3.17;;
28252;SDS011;15515;45.588;5.276;2022-10-31T14:56:49;17.33;;;4.25;;
28252;SDS011;15515;45.588;5.276;2022-10-31T14:59:22;14.82;;;5.25;;
28252;SDS011;15515;45.588;5.276;2022-10-31T15:01:58;15.93;;;4.60;;
28252;SDS011;15515;45.588;5.276;2022-10-31T15:04:34;26.67;;;5.15;;
28252;SDS011;15515;45.588;5.276;2022-10-31T15:09:33;12.02;;;5.20;;
28252;SDS011;15515;45.588;5.276;2022-10-31T15:12:16;17.90;;;4.35;;
28252;SDS011;15515;45.588;5.276;2022-10-31T15:14:52;11.70;;;4.07;;
28252;SDS011;15515;45.588;5.276;2022-10-31T15:17:19;14.40;;;4.07;;
28252;SDS011;15515;45.588;5.276;2022-10-31T15:19:47;12.55;;;3.80;;
28252;SDS011;15515;45.588;5.276;2022-10-31T15:22:14;16.05;;;4.65;;
28252;SDS011;15515;45.588;5.276;2022-10-31T15:24:44;17.55;;;4.10;;
28252;SDS011;15515;45.588;5.276;2022-10-31T15:27:16;11.93;;;3.80;;
28252;SDS011;15515;45.588;5.276;2022-10-31T15:29:48;17.25;;;4.07;;
28252;SDS011;15515;45.588;5.276;2022-10-31T15:32:23;13.77;;;4.57;;
28252;SDS011;15515;45.588;5.276;2022-10-31T15:34:54;10.30;;;4.07;;
28252;SDS011;15515;45.588;5.276;2022-10-31T15:37:23;14.35;;;4.22;;
28252;SDS011;15515;45.588;5.276;2022-10-31T15:39:52;13.02;;;4.40;;
28252;SDS011;15515;45.588;5.276;2022-10-31T15:42:27;16.15;;;5.07;;
28252;SDS011;15515;45.588;5.276;2022-10-31T15:45:05;12.75;;;4.68;;
28252;SDS011;15515;45.588;5.276;2022-10-31T15:47:56;13.50;;;4.70;;
28252;SDS011;15515;45.588;5.276;2022-10-31T15:50:58;13.65;;;4.13;;
28252;SDS011;15515;45.588;5.276;2022-10-31T15:53:22;14.43;;;4.43;;
28252;SDS011;15515;45.588;5.276;2022-10-31T15:55:51;16.30;;;4.50;;
28252;SDS011;15515;45.588;5.276;2022-10-31T15:58:22;10.80;;;4.10;;
28252;SDS011;15515;45.588;5.276;2022-10-31T16:01:05;17.00;;;5.25;;
28252;SDS011;15515;45.588;5.276;2022-10-31T16:06:22;16.05;;;4.13;;
28252;SDS011;15515;45.588;5.276;2022-10-31T16:08:49;17.17;;;4.47;;
28252;SDS011;15515;45.588;5.276;2022-10-31T16:14:35;14.15;;;4.50;;
28252;SDS011;15515;45.588;5.276;2022-10-31T16:16:42;10.93;;;3.60;;
28252;SDS011;15515;45.588;5.276;2022-10-31T16:19:19;15.80;;;5.45;;
28252;SDS011;15515;45.588;5.276;2022-10-31T16:22:11;18.67;;;4.95;;
28252;SDS011;15515;45.588;5.276;2022-10-31T16:24:45;14.43;;;4.43;;
28252;SDS011;15515;45.588;5.276;2022-10-31T16:27:19;11.63;;;4.47;;
28252;SDS011;15515;45.588;5.276;2022-10-31T16:29:52;13.98;;;5.10;;
28252;SDS011;15515;45.588;5.276;2022-10-31T16:32:51;16.83;;;4.82;;
28252;SDS011;15515;45.588;5.276;2022-10-31T16:35:24;25.15;;;7.18;;
28252;SDS011;15515;45.588;5.276;2022-10-31T16:37:53;24.52;;;8.20;;
28252;SDS011;15515;45.588;5.276;2022-10-31T16:40:20;25.20;;;5.00;;
28252;SDS011;15515;45.588;5.276;2022-10-31T16:42:47;14.30;;;5.13;;
28252;SDS011;15515;45.588;5.276;2022-10-31T16:45:19;17.05;;;4.65;;
28252;SDS011;15515;45.588;5.276;2022-10-31T16:47:48;17.33;;;4.30;;
28252;SDS011;15515;45.588;5.276;2022-10-31T16:50:21;13.55;;;4.78;;
28252;SDS011;15515;45.588;5.276;2022-10-31T16:52:52;12.65;;;4.10;;
28252;SDS011;15515;45.588;5.276;2022-10-31T16:55:34;18.27;;;6.68;;
28252;SDS011;15515;45.588;5.276;2022-10-31T16:58:07;16.88;;;5.75;;
28252;SDS011;15515;45.588;5.276;2022-10-31T17:00:37;12.45;;;4.93;;
28252;SDS011;15515;45.588;5.276;2022-10-31T17:03:04;8.60;;;4.65;;
28252;SDS011;15515;45.588;5.276;2022-10-31T17:05:31;18.20;;;5.90;;
28252;SDS011;15515;45.588;5.276;2022-10-31T17:07:58;16.58;;;5.68;;
28252;SDS011;15515;45.588;5.276;2022-10-31T17:10:26;13.75;;;5.00;;
28252;SDS011;15515;45.588;5.276;2022-10-31T17:12:53;16.23;;;4.93;;
28252;SDS011;15515;45.588;5.276;2022-10-31T17:15:24;17.70;;;5.43;;
28252;SDS011;15515;45.588;5.276;2022-10-31T17:17:53;18.63;;;4.88;;
28252;SDS011;15515;45.588;5.276;2022-10-31T17:20:22;15.63;;;4.72;;
28252;SDS011;15515;45.588;5.276;2022-10-31T17:22:49;16.92;;;4.75;;
28252;SDS011;15515;45.588;5.276;2022-10-31T17:25:17;19.48;;;4.88;;
28252;SDS011;15515;45.588;5.276;2022-10-31T17:27:47;11.43;;;4.85;;
28252;SDS011;15515;45.588;5.276;2022-10-31T17:30:14;13.95;;;4.88;;
28252;SDS011;15515;45.588;5.276;2022-10-31T17:32:44;14.63;;;4.80;;
28252;SDS011;15515;45.588;5.276;2022-10-31T17:35:12;15.23;;;5.10;;
28252;SDS011;15515;45.588;5.276;2022-10-31T17:37:41;18.92;;;4.70;;
28252;SDS011;15515;45.588;5.276;2022-10-31T17:40:09;15.18;;;5.18;;
28252;SDS011;15515;45.588;5.276;2022-10-31T17:42:37;13.07;;;4.97;;
28252;SDS011;15515;45.588;5.276;2022-10-31T17:45:05;15.15;;;4.75;;
28252;SDS011;15515;45.588;5.276;2022-10-31T17:47:33;16.05;;;5.63;;
28252;SDS011;15515;45.588;5.276;2022-10-31T17:50:01;15.68;;;4.80;;
28252;SDS011;15515;45.588;5.276;2022-10-31T17:52:28;15.07;;;4.90;;